Time;durP1;ratioP1;P1;durP2;ratioP2;P2;SDS_P1;SDS_P2;PMS_P1;PMS_P2;Temp;Humidity;BMP_temperature;BMP_pressure;BME280_temperature;BME280_humidity;BME280_pressure;Samples;Min_cycle;Max_cycle;Signal;HPM_P1;HPM_P2
2021/05/03 00:01:45;;;;;;;;;;;3.40;99.90;;;;;;5092400;28;20432;-71
2021/05/03 00:04:11;;;;;;;;;;;3.30;99.90;;;;;;5092367;28;19908;-70
2021/05/03 00:06:36;;;;;;;;;;;3.20;99.90;;;;;;5091267;28;19919;-70
2021/05/03 00:09:02;;;;;;;;;;;3.10;99.90;;;;;;5088480;28;19908;-70
2021/05/03 00:11:28;;;;;;;;;;;3.00;99.90;;;;;;5092141;28;19916;-71
2021/05/03 00:13:53;;;;;;;;;;;3.00;99.90;;;;;;5092281;28;19909;-70
2021/05/03 00:16:19;;;;;;;;;;;2.90;99.90;;;;;;5091127;28;19969;-70
2021/05/03 00:18:44;;;;;;;;;;;2.90;99.90;;;;;;5092126;28;20384;-70
2021/05/03 00:21:10;;;;;;;;;;;2.80;99.90;;;;;;5092195;28;19995;-70
2021/05/03 00:23:35;;;;;;;;;;;2.80;99.90;;;;;;5091554;28;20862;-70
2021/05/03 00:26:01;;;;;;;;;;;2.90;99.90;;;;;;5090808;28;20273;-70
2021/05/03 00:28:27;;;;;;;;;;;2.80;99.90;;;;;;5092024;28;20147;-71
2021/05/03 00:30:52;;;;;;;;;;;2.80;99.90;;;;;;5091847;28;20254;-70
2021/05/03 00:33:17;;;;;;;;;;;2.80;99.90;;;;;;5091783;28;19912;-71
2021/05/03 00:35:43;;;;;;;;;;;2.80;99.90;;;;;;5090727;28;19909;-71
2021/05/03 00:38:08;;;;;;;;;;;2.70;99.90;;;;;;5088040;28;19927;-70
2021/05/03 00:40:34;;;;;;;;;;;2.70;99.90;;;;;;5091401;28;19916;-71
2021/05/03 00:42:59;;;;;;;;;;;2.70;99.90;;;;;;5091658;28;20003;-71
2021/05/03 00:45:25;;;;;;;;;;;2.50;99.90;;;;;;5091610;28;19915;-71
2021/05/03 00:47:51;;;;;;;;;;;2.40;99.90;;;;;;5090036;28;20353;-70
2021/05/03 00:50:17;;;;;;;;;;;2.30;99.90;;;;;;5091737;28;19994;-71
2021/05/03 00:52:43;;;;;;;;;;;2.30;99.90;;;;;;5090067;28;20373;-71
2021/05/03 00:55:09;;;;;;;;;;;2.20;99.90;;;;;;5091435;28;19908;-70
2021/05/03 00:57:35;;;;;;;;;;;2.20;99.90;;;;;;5082404;28;19969;-70
2021/05/03 01:00:00;;;;;;;;;;;2.20;99.90;;;;;;5105909;28;19908;-71
2021/05/03 01:02:26;;;;;;;;;;;2.20;99.90;;;;;;5111644;28;19955;-71
2021/05/03 01:04:52;;;;;;;;;;;2.20;99.90;;;;;;5111789;28;19908;-71
2021/05/03 01:07:17;;;;;;;;;;;2.20;99.90;;;;;;5110608;28;20380;-70
2021/05/03 01:09:43;;;;;;;;;;;2.20;99.90;;;;;;5111121;28;19927;-70
2021/05/03 01:12:08;;;;;;;;;;;2.20;99.90;;;;;;5111432;28;19908;-70
2021/05/03 01:14:34;;;;;;;;;;;2.20;99.90;;;;;;5111249;28;19908;-70
2021/05/03 01:17:00;;;;;;;;;;;2.30;99.90;;;;;;5103720;28;20078;-70
2021/05/03 01:19:28;;;;;;;;;;;2.30;99.90;;;;;;5090157;28;20194;-70
2021/05/03 01:21:54;;;;;;;;;;;2.30;99.90;;;;;;5111480;28;20293;-70
2021/05/03 01:24:19;;;;;;;;;;;2.40;99.90;;;;;;5111232;28;19911;-70
2021/05/03 01:26:45;;;;;;;;;;;2.40;99.90;;;;;;5110350;28;20004;-72
2021/05/03 01:29:11;;;;;;;;;;;2.40;99.90;;;;;;5111302;28;19915;-70
2021/05/03 01:31:37;;;;;;;;;;;2.30;99.90;;;;;;5111409;28;19908;-70
2021/05/03 01:34:06;;;;;;;;;;;2.20;99.90;;;;;;5111110;28;19908;-70
2021/05/03 01:36:35;;;;;;;;;;;2.10;99.90;;;;;;5110174;28;19908;-70
2021/05/03 01:39:00;;;;;;;;;;;2.10;99.90;;;;;;5112102;28;19916;-70
2021/05/03 01:41:26;;;;;;;;;;;2.00;99.90;;;;;;5113140;28;19915;-70
2021/05/03 01:43:51;;;;;;;;;;;2.00;99.90;;;;;;5106156;28;19908;-70
2021/05/03 01:46:18;;;;;;;;;;;2.00;99.90;;;;;;5088528;28;19908;-70
2021/05/03 01:48:43;;;;;;;;;;;2.00;99.90;;;;;;5090841;28;19909;-70
2021/05/03 01:51:09;;;;;;;;;;;2.00;99.90;;;;;;5094948;28;19908;-70
2021/05/03 01:53:35;;;;;;;;;;;2.00;99.90;;;;;;5093537;28;19912;-70
2021/05/03 01:56:01;;;;;;;;;;;1.90;99.90;;;;;;5093880;28;20363;-70
2021/05/03 01:58:26;;;;;;;;;;;1.90;99.90;;;;;;5094505;28;19919;-70
2021/05/03 02:00:52;;;;;;;;;;;1.80;99.90;;;;;;5093507;28;19908;-70
2021/05/03 02:03:22;;;;;;;;;;;1.80;99.90;;;;;;5094548;28;20369;-70
2021/05/03 02:05:47;;;;;;;;;;;1.90;99.90;;;;;;5094025;28;20140;-70
2021/05/03 02:08:13;;;;;;;;;;;1.90;99.90;;;;;;5094637;28;19919;-70
2021/05/03 02:10:39;;;;;;;;;;;1.90;99.90;;;;;;5093660;28;19915;-70
2021/05/03 02:13:04;;;;;;;;;;;1.90;99.90;;;;;;5094529;28;19954;-70
2021/05/03 02:15:30;;;;;;;;;;;1.90;99.90;;;;;;5086946;28;19908;-70
2021/05/03 02:17:56;;;;;;;;;;;2.00;99.90;;;;;;5093236;28;20365;-70
2021/05/03 02:20:21;;;;;;;;;;;1.90;99.90;;;;;;5094321;28;19912;-70
2021/05/03 02:22:47;;;;;;;;;;;1.90;99.90;;;;;;5094177;28;19908;-70
2021/05/03 02:25:12;;;;;;;;;;;1.90;99.90;;;;;;5093028;28;19908;-70
2021/05/03 02:27:38;;;;;;;;;;;1.90;99.90;;;;;;5093068;28;19955;-70
2021/05/03 02:30:05;;;;;;;;;;;1.90;99.90;;;;;;5094268;28;20297;-70
2021/05/03 02:32:31;;;;;;;;;;;1.90;99.90;;;;;;5093772;28;19908;-70
2021/05/03 02:34:56;;;;;;;;;;;1.90;99.90;;;;;;5093848;28;19915;-70
2021/05/03 02:37:24;;;;;;;;;;;2.00;99.90;;;;;;5085598;28;20323;-70
2021/05/03 02:39:50;;;;;;;;;;;2.00;99.90;;;;;;5093877;28;20015;-70
2021/05/03 02:42:15;;;;;;;;;;;2.00;99.90;;;;;;5092616;28;20007;-70
2021/05/03 02:44:41;;;;;;;;;;;2.00;99.90;;;;;;5093703;28;19915;-70
2021/05/03 02:47:07;;;;;;;;;;;2.10;99.90;;;;;;5092860;28;20397;-70
2021/05/03 02:49:33;;;;;;;;;;;2.10;99.90;;;;;;5092269;28;20048;-70
2021/05/03 02:51:59;;;;;;;;;;;2.10;99.90;;;;;;5093900;28;19908;-70
2021/05/03 02:54:24;;;;;;;;;;;2.10;99.90;;;;;;5093734;28;19995;-70
2021/05/03 02:56:50;;;;;;;;;;;2.10;99.90;;;;;;5089413;28;19908;-70
2021/05/03 02:59:15;;;;;;;;;;;2.10;99.90;;;;;;5089895;28;19909;-70
2021/05/03 03:01:41;;;;;;;;;;;2.00;99.90;;;;;;5093135;28;19908;-70
2021/05/03 03:04:06;;;;;;;;;;;2.00;99.90;;;;;;5092975;28;19955;-70
2021/05/03 03:06:31;;;;;;;;;;;1.90;99.90;;;;;;5092523;28;19995;-70
2021/05/03 03:08:57;;;;;;;;;;;2.00;99.90;;;;;;5093133;28;20384;-70
2021/05/03 03:11:23;;;;;;;;;;;2.00;99.90;;;;;;5091903;28;19959;-70
2021/05/03 03:13:49;;;;;;;;;;;2.10;99.90;;;;;;5093142;28;19943;-70
2021/05/03 03:16:15;;;;;;;;;;;2.10;99.90;;;;;;5092267;28;20377;-70
2021/05/03 03:18:41;;;;;;;;;;;2.20;99.90;;;;;;5092600;28;19909;-70
2021/05/03 03:21:06;;;;;;;;;;;2.20;99.90;;;;;;5093043;28;19908;-70
2021/05/03 03:23:31;;;;;;;;;;;2.20;99.90;;;;;;5091813;28;20050;-70
2021/05/03 03:25:57;;;;;;;;;;;2.20;99.90;;;;;;5092018;28;19915;-70
2021/05/03 03:28:22;;;;;;;;;;;2.20;99.90;;;;;;5087146;28;20374;-70
2021/05/03 03:30:48;;;;;;;;;;;2.20;99.90;;;;;;5093004;28;19912;-70
2021/05/03 03:33:13;;;;;;;;;;;2.20;99.90;;;;;;5090912;28;20357;-70
2021/05/03 03:35:39;;;;;;;;;;;2.30;99.90;;;;;;5092340;28;19908;-70
2021/05/03 03:38:04;;;;;;;;;;;2.30;99.90;;;;;;5092872;28;19997;-70
2021/05/03 03:40:30;;;;;;;;;;;2.30;99.90;;;;;;5092830;28;19908;-70
2021/05/03 03:42:55;;;;;;;;;;;2.40;99.90;;;;;;5092707;28;19912;-70
2021/05/03 03:45:21;;;;;;;;;;;2.40;99.90;;;;;;5093068;28;19908;-70
2021/05/03 03:47:46;;;;;;;;;;;2.40;99.90;;;;;;5091307;28;19916;-70
2021/05/03 03:50:12;;;;;;;;;;;2.50;99.90;;;;;;5092672;28;19915;-70
2021/05/03 03:52:38;;;;;;;;;;;2.50;99.90;;;;;;5092565;28;19912;-70
2021/05/03 03:55:04;;;;;;;;;;;2.60;99.90;;;;;;5092534;28;19915;-70
2021/05/03 03:57:30;;;;;;;;;;;2.60;99.90;;;;;;5082126;28;19912;-70
2021/05/03 03:59:57;;;;;;;;;;;2.70;99.90;;;;;;5097980;28;19915;-70
2021/05/03 04:02:23;;;;;;;;;;;2.70;99.90;;;;;;5112774;28;20382;-70
2021/05/03 04:05:05;;;;;;;;;;;2.70;99.90;;;;;;5112642;28;19919;-70
2021/05/03 04:07:53;;;;;;;;;;;2.70;99.90;;;;;;5111642;28;19915;-70
2021/05/03 04:21:08;;;;;;;;;;;2.70;99.90;;;;;;5112535;28;19915;-70
2021/05/03 04:26:12;;;;;;;;;;;2.60;99.90;;;;;;5111392;28;19911;-70
2021/05/03 04:28:37;;;;;;;;;;;2.60;99.90;;;;;;5086440;28;19933;-70
2021/05/03 04:31:03;;;;;;;;;;;2.70;99.90;;;;;;5091793;28;19908;-70
2021/05/03 04:33:29;;;;;;;;;;;2.70;99.90;;;;;;5091805;28;19912;-70
2021/05/03 04:35:54;;;;;;;;;;;2.70;99.90;;;;;;5090539;28;19969;-70
2021/05/03 04:38:20;;;;;;;;;;;2.70;99.90;;;;;;5091755;28;19923;-70
2021/05/03 04:40:46;;;;;;;;;;;2.70;99.90;;;;;;5091612;28;20416;-70
2021/05/03 04:43:12;;;;;;;;;;;2.80;99.90;;;;;;5090131;28;19931;-70
2021/05/03 04:45:38;;;;;;;;;;;2.80;99.90;;;;;;5091037;28;20479;-70
2021/05/03 04:48:04;;;;;;;;;;;2.80;99.90;;;;;;5090050;28;19915;-70
2021/05/03 04:50:29;;;;;;;;;;;2.90;99.90;;;;;;5091421;28;20337;-70
2021/05/03 04:52:55;;;;;;;;;;;2.90;99.90;;;;;;5091349;28;19955;-70
2021/05/03 04:55:20;;;;;;;;;;;3.00;99.90;;;;;;5091471;28;19955;-70
2021/05/03 04:57:46;;;;;;;;;;;3.00;99.90;;;;;;5083100;28;20388;-70
2021/05/03 05:00:11;;;;;;;;;;;3.00;99.90;;;;;;5089919;28;19908;-70
2021/05/03 05:02:37;;;;;;;;;;;3.10;99.90;;;;;;5091450;28;19908;-70
2021/05/03 05:05:02;;;;;;;;;;;3.10;99.90;;;;;;5091170;28;19909;-70
2021/05/03 05:07:28;;;;;;;;;;;3.20;99.90;;;;;;5090329;28;20003;-70
2021/05/03 05:09:55;;;;;;;;;;;3.30;99.90;;;;;;5091036;28;20361;-70
2021/05/03 05:12:21;;;;;;;;;;;3.50;99.90;;;;;;5091085;28;19953;-70
2021/05/03 05:14:46;;;;;;;;;;;3.70;99.90;;;;;;5091122;28;19908;-70
2021/05/03 05:17:12;;;;;;;;;;;4.00;99.90;;;;;;5089010;28;20369;-70
2021/05/03 05:19:38;;;;;;;;;;;4.10;99.90;;;;;;5091123;28;19919;-70
2021/05/03 05:22:04;;;;;;;;;;;4.10;99.90;;;;;;5091056;28;19911;-70
2021/05/03 05:24:29;;;;;;;;;;;4.10;99.90;;;;;;5090115;28;19929;-70
2021/05/03 05:26:55;;;;;;;;;;;4.10;99.90;;;;;;5085560;28;19912;-70
2021/05/03 05:29:24;;;;;;;;;;;4.10;99.90;;;;;;5088031;28;19915;-70
2021/05/03 05:31:50;;;;;;;;;;;4.20;99.90;;;;;;5091308;28;20288;-70
2021/05/03 05:34:16;;;;;;;;;;;4.20;99.90;;;;;;5090759;28;20394;-70
2021/05/03 05:36:41;;;;;;;;;;;4.30;99.90;;;;;;5090078;28;19909;-70
2021/05/03 05:39:07;;;;;;;;;;;4.40;99.90;;;;;;5090225;28;19977;-70
2021/05/03 05:41:33;;;;;;;;;;;4.50;99.90;;;;;;5090922;28;19943;-70
2021/05/03 05:43:59;;;;;;;;;;;4.60;99.90;;;;;;5090312;28;20410;-70
2021/05/03 05:46:24;;;;;;;;;;;4.70;99.90;;;;;;5089719;28;19912;-70
2021/05/03 05:48:50;;;;;;;;;;;4.70;99.90;;;;;;5090200;28;19912;-70
2021/05/03 05:51:15;;;;;;;;;;;4.70;99.90;;;;;;5091910;28;19916;-70
2021/05/03 05:53:41;;;;;;;;;;;4.80;99.90;;;;;;5091166;28;19962;-72
2021/05/03 05:56:06;;;;;;;;;;;4.80;99.90;;;;;;5089642;28;19940;-71
2021/05/03 05:58:32;;;;;;;;;;;4.90;99.90;;;;;;5082408;28;19950;-71
2021/05/03 06:01:01;;;;;;;;;;;5.00;99.90;;;;;;5090795;28;19912;-70
2021/05/03 06:03:27;;;;;;;;;;;5.00;99.90;;;;;;5090788;28;20428;-72
2021/05/03 06:05:52;;;;;;;;;;;5.10;99.90;;;;;;5100964;28;19963;-70
2021/05/03 06:08:18;;;;;;;;;;;5.10;99.90;;;;;;5110691;28;19915;-71
2021/05/03 06:10:44;;;;;;;;;;;5.10;99.90;;;;;;5110186;28;19922;-71
2021/05/03 06:13:09;;;;;;;;;;;5.20;99.90;;;;;;5080328;28;19912;-71
2021/05/03 06:15:34;;;;;;;;;;;5.30;99.90;;;;;;5088846;28;19917;-71
2021/05/03 06:18:00;;;;;;;;;;;5.30;99.90;;;;;;5089984;28;19951;-70
2021/05/03 06:20:26;;;;;;;;;;;5.40;99.90;;;;;;5090566;28;19917;-71
2021/05/03 06:23:04;;;;;;;;;;;5.50;99.90;;;;;;5090514;28;19908;-73
2021/05/03 06:25:30;;;;;;;;;;;5.60;99.90;;;;;;5090660;28;19909;-70
2021/05/03 06:27:56;;;;;;;;;;;5.70;99.90;;;;;;5089294;28;20346;-71
2021/05/03 06:30:23;;;;;;;;;;;5.80;99.90;;;;;;5090450;28;19944;-72
2021/05/03 06:32:49;;;;;;;;;;;5.90;99.90;;;;;;5090503;28;19954;-70
2021/05/03 06:35:14;;;;;;;;;;;6.00;99.90;;;;;;5090703;28;19934;-71
2021/05/03 06:37:40;;;;;;;;;;;6.10;99.90;;;;;;5081314;28;19916;-72
2021/05/03 06:40:06;;;;;;;;;;;6.20;99.90;;;;;;5093685;28;19907;-72
2021/05/03 06:42:31;;;;;;;;;;;6.30;99.90;;;;;;5103976;28;19941;-71
2021/05/03 06:44:57;;;;;;;;;;;6.40;99.90;;;;;;5093594;28;19916;-71
2021/05/03 06:47:23;;;;;;;;;;;6.50;99.90;;;;;;5092493;28;19954;-71
2021/05/03 06:49:49;;;;;;;;;;;6.60;99.90;;;;;;5097585;28;19956;-71
2021/05/03 06:52:14;;;;;;;;;;;6.80;99.90;;;;;;5113550;28;20087;-72
2021/05/03 06:54:40;;;;;;;;;;;7.00;99.90;;;;;;5114036;28;19908;-72
2021/05/03 06:57:05;;;;;;;;;;;7.10;99.90;;;;;;5100453;28;20288;-71
2021/05/03 06:59:31;;;;;;;;;;;7.60;99.90;;;;;;5081790;28;19923;-71
2021/05/03 07:01:56;;;;;;;;;;;8.20;99.90;;;;;;5089933;28;19919;-72
2021/05/03 07:04:22;;;;;;;;;;;8.80;99.90;;;;;;5092132;28;19915;-70
2021/05/03 07:06:47;;;;;;;;;;;9.40;99.90;;;;;;5092496;28;19919;-71
2021/05/03 07:09:13;;;;;;;;;;;10.20;99.90;;;;;;5089998;28;19999;-71
2021/05/03 07:11:40;;;;;;;;;;;11.20;99.90;;;;;;5084485;28;19912;-71
2021/05/03 07:14:06;;;;;;;;;;;11.70;99.90;;;;;;5092204;28;19923;-71
2021/05/03 07:16:32;;;;;;;;;;;12.00;99.90;;;;;;5079547;28;20003;-71
2021/05/03 07:18:58;;;;;;;;;;;12.40;99.90;;;;;;5077920;28;20086;-72
2021/05/03 07:21:23;;;;;;;;;;;12.80;99.60;;;;;;5079041;28;19915;-72
2021/05/03 07:23:50;;;;;;;;;;;13.40;98.30;;;;;;5082778;28;19961;-72
2021/05/03 07:26:16;;;;;;;;;;;14.00;97.30;;;;;;5087054;28;19908;-70
2021/05/03 07:28:41;;;;;;;;;;;14.30;95.60;;;;;;5085600;28;19934;-72
2021/05/03 07:31:07;;;;;;;;;;;14.60;94.50;;;;;;5085372;28;19908;-72
2021/05/03 07:33:32;;;;;;;;;;;14.70;94.20;;;;;;5101335;28;19907;-70
2021/05/03 07:35:58;;;;;;;;;;;14.90;93.40;;;;;;5091276;28;20379;-71
2021/05/03 07:38:24;;;;;;;;;;;15.00;93.10;;;;;;5092761;28;19923;-70
2021/05/03 07:40:49;;;;;;;;;;;15.30;91.80;;;;;;5082835;28;20004;-71
2021/05/03 07:43:15;;;;;;;;;;;15.30;92.50;;;;;;5076007;28;19954;-71
2021/05/03 07:45:41;;;;;;;;;;;15.50;91.70;;;;;;5086910;28;20461;-70
2021/05/03 07:48:06;;;;;;;;;;;15.60;90.20;;;;;;5085520;28;20100;-70
2021/05/03 07:50:32;;;;;;;;;;;15.90;90.10;;;;;;5076198;28;19926;-71
2021/05/03 07:52:58;;;;;;;;;;;15.90;90.60;;;;;;5087458;28;19995;-71
2021/05/03 07:55:24;;;;;;;;;;;16.10;88.10;;;;;;5084247;28;20361;-71
2021/05/03 07:57:51;;;;;;;;;;;16.10;89.10;;;;;;5073851;28;20454;-71
2021/05/03 08:00:16;;;;;;;;;;;16.20;88.20;;;;;;5088413;28;19912;-71
2021/05/03 08:02:42;;;;;;;;;;;16.10;87.50;;;;;;5090421;28;20042;-71
2021/05/03 08:05:08;;;;;;;;;;;16.30;88.10;;;;;;5079905;28;19908;-70
2021/05/03 08:07:33;;;;;;;;;;;16.30;86.50;;;;;;5090937;28;20470;-71
2021/05/03 08:09:59;;;;;;;;;;;16.40;88.10;;;;;;5092208;28;20364;-70
2021/05/03 08:12:24;;;;;;;;;;;16.40;83.10;;;;;;5091843;28;19912;-70
2021/05/03 08:14:51;;;;;;;;;;;16.50;85.10;;;;;;5092147;28;19908;-70
2021/05/03 08:17:17;;;;;;;;;;;16.70;87.50;;;;;;5091022;28;20456;-70
2021/05/03 08:19:45;;;;;;;;;;;16.90;87.80;;;;;;5091879;28;19915;-71
2021/05/03 08:22:11;;;;;;;;;;;16.90;83.60;;;;;;5091899;28;19966;-71
2021/05/03 08:24:36;;;;;;;;;;;17.00;84.70;;;;;;5088385;28;19908;-72
2021/05/03 08:27:03;;;;;;;;;;;17.10;81.20;;;;;;5081313;28;20354;-72
2021/05/03 08:29:29;;;;;;;;;;;17.40;79.10;;;;;;5061773;28;19951;-71
2021/05/03 08:31:56;;;;;;;;;;;17.70;81.40;;;;;;5074527;28;20053;-73
2021/05/03 08:34:21;;;;;;;;;;;18.10;79.00;;;;;;5066450;28;20362;-71
2021/05/03 08:36:49;;;;;;;;;;;18.20;80.10;;;;;;5066811;28;19913;-73
2021/05/03 08:39:14;;;;;;;;;;;18.30;77.10;;;;;;5066633;28;19916;-72
2021/05/03 08:41:40;;;;;;;;;;;17.80;75.30;;;;;;5075807;28;19912;-72
2021/05/03 08:44:07;;;;;;;;;;;16.90;75.40;;;;;;5085085;28;19908;-71
2021/05/03 08:46:38;;;;;;;;;;;16.00;74.90;;;;;;5086113;28;19946;-71
2021/05/03 08:54:11;;;;;;;;;;;14.20;78.80;;;;;;5088347;28;19908;-71
2021/05/03 08:56:36;;;;;;;;;;;13.60;80.60;;;;;;5072896;28;19915;-71
2021/05/03 08:59:02;;;;;;;;;;;13.20;84.30;;;;;;5074430;28;19912;-71
2021/05/03 09:01:28;;;;;;;;;;;12.90;84.60;;;;;;5081550;28;19916;-71
2021/05/03 09:03:54;;;;;;;;;;;12.60;84.50;;;;;;5078854;28;19920;-71
2021/05/03 09:06:19;;;;;;;;;;;12.50;87.10;;;;;;5087089;28;19970;-71
2021/05/03 09:08:45;;;;;;;;;;;12.60;86.90;;;;;;5079457;28;19912;-70
2021/05/03 09:11:15;;;;;;;;;;;12.60;87.10;;;;;;5082894;28;20206;-73
2021/05/03 09:13:41;;;;;;;;;;;12.40;87.50;;;;;;5078343;28;19914;-71
2021/05/03 09:16:10;;;;;;;;;;;12.40;86.50;;;;;;5072733;28;19912;-71
2021/05/03 09:18:37;;;;;;;;;;;12.40;85.90;;;;;;5085901;28;20002;-73
2021/05/03 09:21:03;;;;;;;;;;;12.50;88.90;;;;;;5080642;28;20395;-72
2021/05/03 09:23:29;;;;;;;;;;;12.70;87.50;;;;;;5077219;28;19912;-71
2021/05/03 09:25:54;;;;;;;;;;;12.70;84.50;;;;;;5076833;28;19919;-71
2021/05/03 09:28:30;;;;;;;;;;;12.70;86.00;;;;;;5077548;28;19917;-71
2021/05/03 09:30:56;;;;;;;;;;;12.70;85.00;;;;;;5074211;28;20392;-72
2021/05/03 09:33:26;;;;;;;;;;;12.60;86.20;;;;;;5088049;28;19994;-70
2021/05/03 09:35:55;;;;;;;;;;;12.50;84.10;;;;;;5088853;28;19912;-70
2021/05/03 09:38:32;;;;;;;;;;;12.40;82.30;;;;;;5076050;28;20420;-70
2021/05/03 09:41:10;;;;;;;;;;;12.50;86.00;;;;;;5085360;28;20362;-71
2021/05/03 09:43:39;;;;;;;;;;;13.30;87.10;;;;;;5078596;28;19917;-70
2021/05/03 09:46:23;;;;;;;;;;;14.50;90.00;;;;;;5079181;28;19915;-71
2021/05/03 09:48:49;;;;;;;;;;;15.60;80.00;;;;;;5082153;28;20385;-71
2021/05/03 09:51:29;;;;;;;;;;;16.00;75.90;;;;;;5086823;28;19946;-72
2021/05/03 09:54:08;;;;;;;;;;;16.20;73.50;;;;;;5086833;28;19908;-71
2021/05/03 09:56:52;;;;;;;;;;;16.10;71.80;;;;;;5067615;28;19920;-71
2021/05/03 09:59:29;;;;;;;;;;;15.60;71.80;;;;;;5080613;28;19908;-70
2021/05/03 10:02:08;;;;;;;;;;;15.10;73.80;;;;;;5083546;28;20151;-72
2021/05/03 10:04:34;;;;;;;;;;;14.80;73.90;;;;;;5077468;28;19908;-71
2021/05/03 10:07:00;;;;;;;;;;;14.50;73.80;;;;;;5077517;28;19919;-70
2021/05/03 10:09:27;;;;;;;;;;;14.40;76.20;;;;;;5082023;28;20308;-71
2021/05/03 10:11:53;;;;;;;;;;;14.30;75.30;;;;;;5086003;28;20225;-70
2021/05/03 10:14:19;;;;;;;;;;;14.20;75.30;;;;;;5088528;28;19912;-70
2021/05/03 10:16:46;;;;;;;;;;;13.80;71.00;;;;;;5089724;28;19908;-72
2021/05/03 10:19:12;;;;;;;;;;;13.50;71.30;;;;;;5092545;28;19908;-71
2021/05/03 10:21:41;;;;;;;;;;;13.20;74.50;;;;;;5083902;28;19908;-71
2021/05/03 10:24:07;;;;;;;;;;;13.10;72.40;;;;;;5083740;28;20254;-71
2021/05/03 10:26:32;;;;;;;;;;;13.00;75.40;;;;;;5090093;28;19961;-71
2021/05/03 10:29:02;;;;;;;;;;;13.10;77.50;;;;;;5091738;28;19912;-71
2021/05/03 10:31:28;;;;;;;;;;;13.10;78.20;;;;;;5093866;28;20329;-71
2021/05/03 10:33:54;;;;;;;;;;;13.20;79.10;;;;;;5085269;28;20012;-71
2021/05/03 10:36:31;;;;;;;;;;;13.30;78.20;;;;;;5083889;28;19908;-73
2021/05/03 10:38:56;;;;;;;;;;;13.40;72.40;;;;;;5093303;28;19977;-71
2021/05/03 10:41:23;;;;;;;;;;;13.60;77.80;;;;;;5093492;28;20254;-71
2021/05/03 10:43:50;;;;;;;;;;;13.50;75.40;;;;;;5079094;28;20254;-71
2021/05/03 10:49:12;;;;;;;;;;;13.70;74.80;;;;;;5081788;28;19916;-71
2021/05/03 10:51:52;;;;;;;;;;;14.00;77.90;;;;;;5081825;28;20380;-71
2021/05/03 10:56:50;;;;;;;;;;;14.60;73.60;;;;;;5092342;28;19911;-71
2021/05/03 10:59:16;;;;;;;;;;;14.60;73.10;;;;;;5090100;28;20142;-71
2021/05/03 11:01:57;;;;;;;;;;;14.60;73.90;;;;;;5093542;28;20365;-72
2021/05/03 11:04:22;;;;;;;;;;;14.40;74.40;;;;;;5093407;28;19908;-71
2021/05/03 11:06:48;;;;;;;;;;;14.30;74.50;;;;;;5090956;28;19916;-71
2021/05/03 11:09:27;;;;;;;;;;;14.20;76.20;;;;;;5093347;28;20023;-70
2021/05/03 11:11:53;;;;;;;;;;;14.00;71.80;;;;;;5093271;28;19969;-70
2021/05/03 11:14:21;;;;;;;;;;;13.80;76.20;;;;;;5092970;28;19912;-71
2021/05/03 11:16:53;;;;;;;;;;;13.80;77.90;;;;;;5092289;28;19908;-71
2021/05/03 11:19:26;;;;;;;;;;;13.90;77.30;;;;;;5091592;28;19920;-71
2021/05/03 11:21:52;;;;;;;;;;;14.10;77.30;;;;;;5093133;28;19908;-71
2021/05/03 11:24:21;;;;;;;;;;;14.70;73.10;;;;;;5092948;28;19935;-70
2021/05/03 11:26:49;;;;;;;;;;;15.10;76.50;;;;;;5090551;28;19942;-71
2021/05/03 11:29:19;;;;;;;;;;;15.50;74.80;;;;;;5084307;28;20369;-71
2021/05/03 11:31:45;;;;;;;;;;;15.60;69.20;;;;;;5113069;28;19920;-71
2021/05/03 11:34:19;;;;;;;;;;;15.60;71.00;;;;;;5113247;28;19908;-70
2021/05/03 11:36:51;;;;;;;;;;;15.50;71.60;;;;;;5110283;28;19908;-70
2021/05/03 11:44:58;;;;;;;;;;;15.30;73.20;;;;;;5112903;28;19918;-70
2021/05/03 11:47:27;;;;;;;;;;;15.60;75.40;;;;;;5112160;28;20456;-71
2021/05/03 11:49:52;;;;;;;;;;;16.20;68.60;;;;;;5113026;28;19955;-70
2021/05/03 11:52:28;;;;;;;;;;;16.60;70.20;;;;;;5103816;28;20305;-71
2021/05/03 11:54:55;;;;;;;;;;;17.10;65.60;;;;;;5087890;28;19923;-71
2021/05/03 11:57:21;;;;;;;;;;;17.90;66.20;;;;;;5079485;28;19913;-71
2021/05/03 11:59:47;;;;;;;;;;;18.40;61.70;;;;;;5090368;28;19965;-72
2021/05/03 12:02:13;;;;;;;;;;;18.50;62.60;;;;;;5087534;28;19908;-70
2021/05/03 12:04:39;;;;;;;;;;;18.30;62.50;;;;;;5087549;28;20300;-71
2021/05/03 12:07:14;;;;;;;;;;;17.90;60.30;;;;;;5090888;28;20237;-71
2021/05/03 12:09:40;;;;;;;;;;;17.50;59.50;;;;;;5092192;28;19979;-71
2021/05/03 12:12:05;;;;;;;;;;;17.10;62.60;;;;;;5090839;28;20320;-73
2021/05/03 12:14:37;;;;;;;;;;;16.90;63.00;;;;;;5091532;28;19908;-71
2021/05/03 12:17:12;;;;;;;;;;;16.50;60.80;;;;;;5088962;28;20436;-71
2021/05/03 12:19:37;;;;;;;;;;;16.40;64.30;;;;;;5083301;28;19908;-73
2021/05/03 12:22:03;;;;;;;;;;;16.20;63.30;;;;;;5087844;28;19915;-70
2021/05/03 12:24:33;;;;;;;;;;;16.10;65.50;;;;;;5084619;28;20015;-71
2021/05/03 12:26:59;;;;;;;;;;;15.90;64.60;;;;;;5078761;28;20011;-71
2021/05/03 12:29:26;;;;;;;;;;;15.90;67.30;;;;;;5080952;28;20003;-71
2021/05/03 12:31:52;;;;;;;;;;;15.80;66.70;;;;;;5072670;28;19915;-70
2021/05/03 12:34:22;;;;;;;;;;;16.00;68.10;;;;;;5093595;28;19908;-71
2021/05/03 12:37:06;;;;;;;;;;;16.60;67.60;;;;;;5089921;28;19991;-71
2021/05/03 12:39:33;;;;;;;;;;;17.20;64.80;;;;;;5091327;28;20354;-71
2021/05/03 12:42:17;;;;;;;;;;;17.10;61.00;;;;;;5091477;28;20289;-72
2021/05/03 12:44:45;;;;;;;;;;;16.70;63.50;;;;;;5089583;28;19915;-71
2021/05/03 12:47:19;;;;;;;;;;;16.40;61.00;;;;;;5082427;28;19912;-71
2021/05/03 12:49:53;;;;;;;;;;;16.30;61.10;;;;;;5082007;28;19912;-71
2021/05/03 12:52:26;;;;;;;;;;;16.20;62.90;;;;;;5081307;28;19966;-72
2021/05/03 12:55:01;;;;;;;;;;;16.30;63.70;;;;;;5084132;28;19994;-71
2021/05/03 12:57:50;;;;;;;;;;;16.70;65.70;;;;;;5103858;28;20319;-71
2021/05/03 13:00:21;;;;;;;;;;;17.00;59.50;;;;;;5082716;28;19970;-71
2021/05/03 13:03:11;;;;;;;;;;;17.10;57.20;;;;;;5090943;28;19919;-71
2021/05/03 13:05:55;;;;;;;;;;;17.20;64.40;;;;;;5089250;28;20185;-71
2021/05/03 13:25:19;;;;;;;;;;;17.60;61.00;;;;;;5090966;28;20339;-72
2021/05/03 13:28:20;;;;;;;;;;;17.40;61.30;;;;;;5087676;28;19969;-71
2021/05/03 13:30:46;;;;;;;;;;;17.00;60.60;;;;;;5090249;28;19922;-72
2021/05/03 13:33:11;;;;;;;;;;;16.70;63.40;;;;;;5090474;28;19912;-71
2021/05/03 13:35:37;;;;;;;;;;;16.70;64.80;;;;;;5090048;28;20513;-71
2021/05/03 13:38:02;;;;;;;;;;;16.70;62.50;;;;;;5090386;28;19999;-70
2021/05/03 13:40:28;;;;;;;;;;;16.50;61.10;;;;;;5090882;28;20284;-71
2021/05/03 13:42:54;;;;;;;;;;;16.60;63.50;;;;;;5090293;28;19962;-72
2021/05/03 13:45:21;;;;;;;;;;;17.00;64.70;;;;;;5092108;28;19908;-72
2021/05/03 13:47:47;;;;;;;;;;;17.50;58.40;;;;;;5093560;28;19919;-71
2021/05/03 13:50:13;;;;;;;;;;;17.70;60.00;;;;;;5095161;28;19908;-71
2021/05/03 13:52:38;;;;;;;;;;;18.00;57.80;;;;;;5094901;28;19935;-71
2021/05/03 13:55:04;;;;;;;;;;;18.30;59.70;;;;;;5094729;28;20392;-71
2021/05/03 13:57:30;;;;;;;;;;;18.50;57.40;;;;;;5091048;28;19916;-71
2021/05/03 13:59:55;;;;;;;;;;;18.70;60.30;;;;;;5094464;28;20024;-70
2021/05/03 14:02:21;;;;;;;;;;;18.90;59.00;;;;;;5094645;28;19914;-71
2021/05/03 14:04:46;;;;;;;;;;;19.00;60.80;;;;;;5094356;28;19915;-73
2021/05/03 14:07:12;;;;;;;;;;;19.20;58.70;;;;;;5093340;28;19962;-71
2021/05/03 14:09:37;;;;;;;;;;;19.10;59.30;;;;;;5094743;28;19908;-71
2021/05/03 14:12:03;;;;;;;;;;;19.20;55.50;;;;;;5093252;28;19957;-72
2021/05/03 14:14:31;;;;;;;;;;;19.30;57.00;;;;;;5093029;28;19965;-72
2021/05/03 14:16:59;;;;;;;;;;;19.30;54.10;;;;;;5107454;28;19938;-72
2021/05/03 14:19:30;;;;;;;;;;;19.20;53.70;;;;;;5111920;28;20254;-71
2021/05/03 14:21:55;;;;;;;;;;;19.10;52.50;;;;;;5112100;28;20357;-71
2021/05/03 14:24:21;;;;;;;;;;;18.90;54.70;;;;;;5113851;28;19908;-71
2021/05/03 14:26:47;;;;;;;;;;;18.60;56.00;;;;;;5112668;28;19931;-72
2021/05/03 14:32:01;;;;;;;;;;;18.50;56.10;;;;;;5093992;28;19920;-71
2021/05/03 14:36:52;;;;;;;;;;;18.60;52.50;;;;;;5092745;28;20388;-71
2021/05/03 14:39:17;;;;;;;;;;;18.50;56.90;;;;;;5091246;28;19908;-72
2021/05/03 14:41:43;;;;;;;;;;;18.70;53.50;;;;;;5091210;28;19908;-73
2021/05/03 14:44:11;;;;;;;;;;;18.80;52.40;;;;;;5091678;28;19912;-71
2021/05/03 14:46:44;;;;;;;;;;;18.60;52.40;;;;;;5088819;28;20202;-71
2021/05/03 14:54:28;;;;;;;;;;;17.20;56.90;;;;;;5092240;28;19908;-71
2021/05/03 14:56:57;;;;;;;;;;;17.20;56.80;;;;;;5090744;28;19908;-71
2021/05/03 14:59:22;;;;;;;;;;;16.80;55.30;;;;;;5089257;28;19908;-71
2021/05/03 15:01:48;;;;;;;;;;;16.50;56.20;;;;;;5092329;28;19915;-71
2021/05/03 15:04:13;;;;;;;;;;;16.30;57.30;;;;;;5092133;28;19954;-71
2021/05/03 15:06:41;;;;;;;;;;;16.20;57.20;;;;;;5091221;28;20391;-71
2021/05/03 15:09:11;;;;;;;;;;;16.30;60.40;;;;;;5091728;28;19908;-71
2021/05/03 15:11:37;;;;;;;;;;;16.80;55.60;;;;;;5092312;28;19908;-71
2021/05/03 15:14:11;;;;;;;;;;;16.80;54.70;;;;;;5091702;28;20400;-71
2021/05/03 15:16:47;;;;;;;;;;;16.60;54.80;;;;;;5090960;28;19919;-71
2021/05/03 15:22:01;;;;;;;;;;;16.80;57.70;;;;;;5082859;28;19908;-71
2021/05/03 15:24:28;;;;;;;;;;;16.90;55.10;;;;;;5091822;28;19908;-71